Time;durP1;ratioP1;P1;durP2;ratioP2;P2;SDS_P1;SDS_P2;PMS_P1;PMS_P2;Temp;Humidity;BMP_temperature;BMP_pressure;BME280_temperature;BME280_humidity;BME280_pressure;Samples;Min_cycle;Max_cycle;Signal;HPM_P1;HPM_P2
2021/12/30 00:01:30;;;;;;;;;;;;;;;13.65;77.44;99109.50;5069943;28;19982;-61
2021/12/30 00:03:56;;;;;;;;;;;;;;;13.66;77.78;99121.75;5070302;28;20019;-63
2021/12/30 00:06:23;;;;;;;;;;;;;;;13.66;77.91;99132.31;5070358;28;19928;-61
2021/12/30 00:08:51;;;;;;;;;;;;;;;13.65;77.87;99114.78;5070316;28;20441;-60
2021/12/30 00:11:18;;;;;;;;;;;;;;;13.64;77.75;99107.81;5069456;28;19970;-61
2021/12/30 00:13:45;;;;;;;;;;;;;;;13.63;77.73;99104.31;5070509;28;20550;-61
2021/12/30 00:16:16;;;;;;;;;;;;;;;13.63;77.41;99111.41;5069013;28;19985;-61
2021/12/30 00:18:43;;;;;;;;;;;;;;;13.61;77.25;99114.16;5070339;28;19928;-63
2021/12/30 00:21:10;;;;;;;;;;;;;;;13.59;77.19;99118.75;5069891;28;20273;-61
2021/12/30 00:23:36;;;;;;;;;;;;;;;13.57;77.06;99136.53;5070401;28;19932;-61
2021/12/30 00:26:03;;;;;;;;;;;;;;;13.55;76.93;99141.13;5070010;28;19966;-62
2021/12/30 00:28:29;;;;;;;;;;;;;;;13.52;76.94;99144.84;5069772;28;19990;-62
2021/12/30 00:30:56;;;;;;;;;;;;;;;13.50;76.86;99162.63;5069696;28;20438;-61
2021/12/30 00:33:23;;;;;;;;;;;;;;;13.49;76.97;99165.41;5070330;28;19934;-61
2021/12/30 00:35:51;;;;;;;;;;;;;;;13.47;77.06;99177.88;5070056;28;19986;-61
2021/12/30 00:38:17;;;;;;;;;;;;;;;13.46;76.95;99181.47;5070167;28;19925;-62
2021/12/30 00:40:44;;;;;;;;;;;;;;;13.43;76.75;99175.44;5069074;28;19928;-60
2021/12/30 00:43:10;;;;;;;;;;;;;;;13.41;76.85;99184.47;5070135;28;20515;-61
2021/12/30 00:45:37;;;;;;;;;;;;;;;13.42;76.90;99194.09;5069739;28;19955;-61
2021/12/30 00:48:05;;;;;;;;;;;;;;;13.39;76.71;99184.59;5070096;28;19932;-63
2021/12/30 00:50:32;;;;;;;;;;;;;;;13.38;76.52;99180.25;5068183;28;19928;-63
2021/12/30 00:53:00;;;;;;;;;;;;;;;13.37;76.46;99183.03;5069530;28;19928;-62
2021/12/30 00:55:26;;;;;;;;;;;;;;;13.35;76.61;99179.69;5069463;28;19952;-61
2021/12/30 00:57:53;;;;;;;;;;;;;;;13.34;76.48;99178.81;5068659;28;19925;-61
2021/12/30 01:00:20;;;;;;;;;;;;;;;13.29;75.66;99181.00;5069340;28;19932;-63
2021/12/30 01:02:47;;;;;;;;;;;;;;;13.26;75.79;99192.63;5069910;28;20534;-61
2021/12/30 01:05:15;;;;;;;;;;;;;;;13.22;75.15;99204.41;5070365;28;19924;-62
2021/12/30 01:07:42;;;;;;;;;;;;;;;13.18;75.43;99199.47;5072285;28;20387;-60
2021/12/30 01:10:10;;;;;;;;;;;;;;;13.15;75.68;99201.41;5072595;28;20526;-61
2021/12/30 01:12:37;;;;;;;;;;;;;;;13.11;75.19;99214.94;5072644;28;20019;-61
2021/12/30 01:15:08;;;;;;;;;;;;;;;13.08;75.73;99210.75;5073475;28;20277;-63
2021/12/30 01:17:57;;;;;;;;;;;;;;;13.05;75.37;99224.22;5073320;28;19924;-61
2021/12/30 01:20:23;;;;;;;;;;;;;;;13.00;75.07;99229.84;5072408;28;19924;-62
2021/12/30 01:22:51;;;;;;;;;;;;;;;12.97;75.29;99226.59;5073515;28;19924;-61
2021/12/30 01:25:17;;;;;;;;;;;;;;;12.90;74.35;99244.72;5073083;28;20438;-62
2021/12/30 01:27:44;;;;;;;;;;;;;;;12.87;75.18;99231.72;5072940;28;20383;-62
2021/12/30 01:30:12;;;;;;;;;;;;;;;12.84;75.17;99237.22;5072509;28;19974;-62
2021/12/30 01:32:39;;;;;;;;;;;;;;;12.81;75.25;99232.16;5071783;28;19958;-62
2021/12/30 01:35:08;;;;;;;;;;;;;;;12.76;74.47;99235.16;5073027;28;19924;-62
2021/12/30 01:37:35;;;;;;;;;;;;;;;12.71;74.63;99256.63;5071684;28;19932;-62
2021/12/30 01:40:02;;;;;;;;;;;;;;;12.67;75.11;99263.09;5072031;28;19932;-60
2021/12/30 01:42:31;;;;;;;;;;;;;;;12.66;75.21;99279.03;5071445;28;19954;-62
2021/12/30 01:44:57;;;;;;;;;;;;;;;12.62;75.06;99294.28;5072934;28;19928;-61
2021/12/30 01:47:25;;;;;;;;;;;;;;;12.59;74.91;99284.78;5072789;28;19925;-62
2021/12/30 01:49:53;;;;;;;;;;;;;;;12.57;75.33;99292.00;5072020;28;19933;-62
2021/12/30 01:52:20;;;;;;;;;;;;;;;12.53;74.94;99285.25;5072577;28;19928;-61
2021/12/30 01:54:46;;;;;;;;;;;;;;;12.52;75.13;99291.47;5072745;28;19924;-61
2021/12/30 01:57:13;;;;;;;;;;;;;;;12.49;75.02;99295.16;5072510;28;19935;-62
2021/12/30 01:59:39;;;;;;;;;;;;;;;12.48;75.25;99287.34;5072072;28;19929;-60
2021/12/30 02:02:06;;;;;;;;;;;;;;;12.45;75.16;99285.78;5072328;28;19977;-61
2021/12/30 02:04:34;;;;;;;;;;;;;;;12.43;75.22;99297.41;5071214;28;19931;-60
2021/12/30 02:07:01;;;;;;;;;;;;;;;12.40;75.20;99300.28;5072695;28;20318;-62
2021/12/30 02:09:29;;;;;;;;;;;;;;;12.36;75.18;99300.50;5072041;28;20380;-63
2021/12/30 02:11:56;;;;;;;;;;;;;;;12.36;75.43;99297.00;5071238;28;19959;-61
2021/12/30 02:14:22;;;;;;;;;;;;;;;12.35;75.35;99305.88;5072431;28;19924;-62
2021/12/30 02:16:49;;;;;;;;;;;;;;;12.34;75.70;99297.13;5071603;28;19924;-62
2021/12/30 02:19:15;;;;;;;;;;;;;;;12.34;75.66;99286.56;5071701;28;19932;-62
2021/12/30 02:21:42;;;;;;;;;;;;;;;12.34;75.68;99286.56;5072153;28;20388;-60
2021/12/30 02:24:09;;;;;;;;;;;;;;;12.33;76.04;99282.25;5072459;28;19924;-61
2021/12/30 02:26:35;;;;;;;;;;;;;;;12.34;75.81;99278.63;5070477;28;19932;-61
2021/12/30 02:29:03;;;;;;;;;;;;;;;12.35;75.77;99279.50;5072059;28;19982;-62
2021/12/30 02:31:30;;;;;;;;;;;;;;;12.35;75.93;99271.56;5070522;28;19978;-61
2021/12/30 02:33:57;;;;;;;;;;;;;;;12.36;75.80;99289.94;5072274;28;19973;-60
2021/12/30 02:36:34;;;;;;;;;;;;;;;12.38;76.18;99281.91;5071996;28;19932;-60
2021/12/30 02:39:03;;;;;;;;;;;;;;;12.42;76.46;99287.81;5071002;28;19928;-63
2021/12/30 02:41:33;;;;;;;;;;;;;;;12.43;76.14;99289.50;5069954;28;20335;-61
2021/12/30 02:44:00;;;;;;;;;;;;;;;12.46;76.38;99305.13;5086761;28;19928;-63
2021/12/30 02:46:30;;;;;;;;;;;;;;;12.48;76.21;99304.03;5070361;28;19963;-61
2021/12/30 02:48:57;;;;;;;;;;;;;;;12.49;76.01;99292.53;5071685;28;19928;-61
2021/12/30 02:51:24;;;;;;;;;;;;;;;12.52;76.17;99283.53;5071033;28;19951;-61
2021/12/30 02:53:51;;;;;;;;;;;;;;;12.54;76.50;99276.38;5072014;28;19928;-61
2021/12/30 02:56:18;;;;;;;;;;;;;;;12.57;76.16;99262.09;5071502;28;19928;-61
2021/12/30 02:58:45;;;;;;;;;;;;;;;12.58;76.41;99283.09;5071859;28;19986;-60
2021/12/30 03:01:15;;;;;;;;;;;;;;;12.60;76.71;99288.28;5070886;28;20463;-61
2021/12/30 03:03:42;;;;;;;;;;;;;;;12.63;76.43;99314.44;5070451;28;19967;-62
2021/12/30 03:06:10;;;;;;;;;;;;;;;12.64;76.43;99316.97;5071190;28;19955;-61
2021/12/30 03:08:37;;;;;;;;;;;;;;;12.68;76.60;99319.41;5071517;28;19971;-64
2021/12/30 03:11:03;;;;;;;;;;;;;;;12.69;76.50;99323.72;5070549;28;20153;-60
2021/12/30 03:13:33;;;;;;;;;;;;;;;12.72;76.52;99329.63;5071215;28;20054;-61
2021/12/30 03:16:02;;;;;;;;;;;;;;;12.75;76.92;99347.06;5070071;28;19925;-60
2021/12/30 03:18:33;;;;;;;;;;;;;;;12.79;76.80;99339.75;5086893;28;19989;-60
2021/12/30 03:21:00;;;;;;;;;;;;;;;12.81;76.54;99333.38;5070532;28;19924;-61
2021/12/30 03:23:27;;;;;;;;;;;;;;;12.83;76.48;99338.56;5070835;28;19932;-63
2021/12/30 03:25:53;;;;;;;;;;;;;;;12.83;76.28;99336.78;5071022;28;19928;-62
2021/12/30 03:28:20;;;;;;;;;;;;;;;12.85;76.75;99326.91;5071043;28;19928;-60
2021/12/30 03:30:47;;;;;;;;;;;;;;;12.88;76.64;99318.78;5070007;28;19924;-61
2021/12/30 03:33:14;;;;;;;;;;;;;;;12.90;76.64;99322.13;5070969;28;19928;-60
2021/12/30 03:35:40;;;;;;;;;;;;;;;12.92;76.40;99334.38;5071137;28;19928;-62
2021/12/30 03:38:07;;;;;;;;;;;;;;;12.94;76.82;99330.69;5070859;28;20410;-61
2021/12/30 03:40:33;;;;;;;;;;;;;;;12.97;77.00;99343.66;5070333;28;19932;-63
2021/12/30 03:43:00;;;;;;;;;;;;;;;13.00;76.95;99339.94;5070518;28;19929;-60
2021/12/30 03:45:26;;;;;;;;;;;;;;;13.02;76.80;99341.50;5070778;28;19924;-60
2021/12/30 03:47:54;;;;;;;;;;;;;;;13.05;76.81;99347.53;5070405;28;19928;-63
2021/12/30 03:50:27;;;;;;;;;;;;;;;13.06;76.94;99342.16;5070204;28;20372;-61
2021/12/30 03:52:55;;;;;;;;;;;;;;;13.07;76.88;99349.13;5069089;28;20434;-63
2021/12/30 03:55:22;;;;;;;;;;;;;;;13.08;76.56;99347.31;5070632;28;19935;-60
2021/12/30 03:57:49;;;;;;;;;;;;;;;13.11;76.68;99353.22;5068802;28;20395;-63
2021/12/30 04:00:17;;;;;;;;;;;;;;;13.12;76.53;99339.03;5069879;28;19928;-62
2021/12/30 04:02:44;;;;;;;;;;;;;;;13.13;76.44;99335.44;5070413;28;20426;-63
2021/12/30 04:05:11;;;;;;;;;;;;;;;13.15;76.55;99338.81;5070274;28;19943;-63
2021/12/30 04:07:37;;;;;;;;;;;;;;;13.16;76.55;99331.75;5070500;28;19990;-62
2021/12/30 04:10:05;;;;;;;;;;;;;;;13.16;76.64;99324.63;5068668;28;19962;-63
2021/12/30 04:12:31;;;;;;;;;;;;;;;13.19;76.42;99339.41;5068958;28;19932;-61
2021/12/30 04:14:58;;;;;;;;;;;;;;;13.20;76.61;99325.25;5070394;28;20046;-60
2021/12/30 04:17:24;;;;;;;;;;;;;;;13.24;76.86;99323.22;5070108;28;19929;-62
2021/12/30 04:19:50;;;;;;;;;;;;;;;13.25;76.61;99317.84;5069764;28;19978;-60
2021/12/30 04:22:18;;;;;;;;;;;;;;;13.24;76.38;99318.75;5070364;28;19970;-61
2021/12/30 04:24:45;;;;;;;;;;;;;;;13.26;76.42;99316.00;5070479;28;20396;-61
2021/12/30 04:27:13;;;;;;;;;;;;;;;13.28;76.54;99322.03;5070161;28;19925;-61
2021/12/30 04:29:40;;;;;;;;;;;;;;;13.29;76.25;99324.56;5069588;28;19986;-61
2021/12/30 04:32:07;;;;;;;;;;;;;;;13.31;76.42;99310.38;5069955;28;19928;-61
2021/12/30 04:34:33;;;;;;;;;;;;;;;13.32;76.51;99320.84;5068789;28;20381;-61
2021/12/30 04:37:00;;;;;;;;;;;;;;;13.34;76.54;99324.22;5069966;28;20373;-61
2021/12/30 04:39:27;;;;;;;;;;;;;;;13.36;76.67;99332.88;5069609;28;19994;-63
2021/12/30 04:41:54;;;;;;;;;;;;;;;13.37;76.34;99326.63;5073416;28;19973;-60
2021/12/30 04:44:21;;;;;;;;;;;;;;;13.39;76.46;99334.44;5072253;28;19925;-62
2021/12/30 04:46:47;;;;;;;;;;;;;;;13.39;76.55;99332.63;5073596;28;19924;-60
2021/12/30 04:49:14;;;;;;;;;;;;;;;13.41;76.61;99338.66;5073378;28;20323;-61
2021/12/30 04:51:40;;;;;;;;;;;;;;;13.43;76.45;99327.97;5074130;28;20986;-62
2021/12/30 04:54:07;;;;;;;;;;;;;;;13.41;76.17;99304.28;5073816;28;19950;-63
2021/12/30 04:56:33;;;;;;;;;;;;;;;13.43;76.53;99302.34;5073778;28;19948;-62
2021/12/30 04:59:00;;;;;;;;;;;;;;;13.42;76.69;99308.59;5073779;28;20368;-61
2021/12/30 05:01:26;;;;;;;;;;;;;;;13.45;76.88;99304.88;5073015;28;19932;-60
2021/12/30 05:03:53;;;;;;;;;;;;;;;13.47;76.93;99304.78;5073700;28;19951;-62
2021/12/30 05:06:19;;;;;;;;;;;;;;;13.48;76.78;99303.84;5073611;28;19958;-61
2021/12/30 05:08:46;;;;;;;;;;;;;;;13.50;76.97;99296.66;5073456;28;19970;-60
2021/12/30 05:11:13;;;;;;;;;;;;;;;13.52;77.03;99286.78;5072860;28;19928;-61
2021/12/30 05:13:40;;;;;;;;;;;;;;;13.52;76.81;99303.50;5073416;28;19928;-61
2021/12/30 05:16:06;;;;;;;;;;;;;;;13.53;76.77;99313.09;5073239;28;19924;-60
2021/12/30 05:18:34;;;;;;;;;;;;;;;13.55;76.97;99307.69;5072286;28;19928;-60
2021/12/30 05:21:02;;;;;;;;;;;;;;;13.55;76.75;99326.22;5072829;28;19924;-60
2021/12/30 05:23:29;;;;;;;;;;;;;;;13.54;76.86;99337.75;5073224;28;19924;-60
2021/12/30 05:25:56;;;;;;;;;;;;;;;13.51;77.10;99335.34;5073028;28;20522;-61
2021/12/30 05:28:23;;;;;;;;;;;;;;;13.53;77.48;99320.22;5072841;28;19932;-62
2021/12/30 05:30:50;;;;;;;;;;;;;;;13.54;77.63;99321.91;5071357;28;19928;-62
2021/12/30 05:33:16;;;;;;;;;;;;;;;13.52;77.41;99324.66;5073435;28;19928;-61
2021/12/30 05:35:43;;;;;;;;;;;;;;;13.53;77.56;99330.78;5073006;28;19950;-61
2021/12/30 05:38:09;;;;;;;;;;;;;;;13.53;77.75;99328.97;5073459;28;19931;-61
2021/12/30 05:40:36;;;;;;;;;;;;;;;13.55;77.77;99347.38;5072479;28;19929;-64
2021/12/30 05:43:02;;;;;;;;;;;;;;;13.57;77.97;99334.03;5072729;28;19998;-62
2021/12/30 05:45:29;;;;;;;;;;;;;;;13.57;77.98;99342.78;5072955;28;19924;-61
2021/12/30 05:47:55;;;;;;;;;;;;;;;13.58;78.00;99343.66;5072879;28;20364;-62
2021/12/30 05:50:24;;;;;;;;;;;;;;;13.58;77.96;99344.50;5072359;28;19928;-62
2021/12/30 05:52:51;;;;;;;;;;;;;;;13.58;78.02;99344.50;5071257;28;19925;-62
2021/12/30 05:55:18;;;;;;;;;;;;;;;13.59;78.00;99348.81;5071386;28;19928;-63
2021/12/30 05:57:45;;;;;;;;;;;;;;;13.59;77.96;99358.53;5072398;28;19925;-61
2021/12/30 06:00:14;;;;;;;;;;;;;;;13.59;78.04;99362.03;5072274;28;19925;-61
2021/12/30 06:02:41;;;;;;;;;;;;;;;13.58;77.54;99363.00;5072676;28;19924;-61
2021/12/30 06:05:08;;;;;;;;;;;;;;;13.58;77.87;99355.06;5071689;28;19964;-61
2021/12/30 06:07:34;;;;;;;;;;;;;;;13.59;78.02;99366.47;5072467;28;19924;-60
2021/12/30 06:10:01;;;;;;;;;;;;;;;13.59;78.00;99364.69;5072272;28;19946;-62
2021/12/30 06:12:27;;;;;;;;;;;;;;;13.58;77.81;99365.66;5072314;28;19981;-61
2021/12/30 06:14:53;;;;;;;;;;;;;;;13.55;77.97;99363.22;5072472;28;19929;-62
2021/12/30 06:17:20;;;;;;;;;;;;;;;13.56;78.05;99356.97;5072037;28;19970;-61
2021/12/30 06:19:46;;;;;;;;;;;;;;;13.56;78.25;99351.69;5072360;28;19993;-61
2021/12/30 06:22:13;;;;;;;;;;;;;;;13.57;78.27;99353.38;5072414;28;19947;-62
2021/12/30 06:24:40;;;;;;;;;;;;;;;13.58;78.30;99346.28;5072400;28;19925;-60
2021/12/30 06:27:07;;;;;;;;;;;;;;;13.58;78.29;99344.50;5072151;28;20428;-61
2021/12/30 06:29:34;;;;;;;;;;;;;;;13.58;78.30;99347.16;5072037;28;20437;-62
2021/12/30 06:32:01;;;;;;;;;;;;;;;13.58;78.18;99333.91;5071220;28;19966;-62
2021/12/30 06:34:27;;;;;;;;;;;;;;;13.58;78.31;99336.56;5072049;28;19924;-64
2021/12/30 06:36:54;;;;;;;;;;;;;;;13.58;78.51;99333.91;5071878;28;20369;-62
2021/12/30 06:39:20;;;;;;;;;;;;;;;13.58;78.58;99336.56;5071641;28;20265;-61
2021/12/30 06:41:47;;;;;;;;;;;;;;;13.58;78.40;99343.66;5072135;28;19929;-63
2021/12/30 06:44:13;;;;;;;;;;;;;;;13.59;78.67;99335.59;5072222;28;19975;-63
2021/12/30 06:46:48;;;;;;;;;;;;;;;13.59;78.54;99335.59;5070703;28;20285;-67
2021/12/30 06:49:15;;;;;;;;;;;;;;;13.60;78.57;99337.28;5071544;28;20380;-60
2021/12/30 06:51:41;;;;;;;;;;;;;;;13.60;78.61;99329.34;5071648;28;20442;-60
2021/12/30 06:54:08;;;;;;;;;;;;;;;13.62;78.77;99335.38;5071862;28;20290;-60
2021/12/30 06:56:35;;;;;;;;;;;;;;;13.63;79.02;99331.75;5070637;28;19924;-60
2021/12/30 06:59:02;;;;;;;;;;;;;;;13.66;78.99;99326.25;5070144;28;19928;-60
2021/12/30 07:01:29;;;;;;;;;;;;;;;13.69;79.27;99317.22;5071245;28;19932;-60
2021/12/30 07:03:56;;;;;;;;;;;;;;;13.73;79.12;99337.19;5071143;28;20415;-60
2021/12/30 07:06:23;;;;;;;;;;;;;;;13.74;79.22;99349.44;5071312;28;19924;-60
2021/12/30 07:08:50;;;;;;;;;;;;;;;13.77;79.21;99351.88;5071461;28;19932;-62
2021/12/30 07:11:16;;;;;;;;;;;;;;;13.81;78.96;99355.97;5071225;28;19929;-60
2021/12/30 07:13:43;;;;;;;;;;;;;;;13.81;79.07;99345.38;5071584;28;19928;-59
2021/12/30 07:16:09;;;;;;;;;;;;;;;13.85;79.21;99340.69;5071477;28;19924;-60
2021/12/30 07:18:36;;;;;;;;;;;;;;;13.86;79.19;99342.34;5071293;28;20698;-60
2021/12/30 07:21:02;;;;;;;;;;;;;;;13.88;79.22;99344.88;5070929;28;19976;-61
2021/12/30 07:23:28;;;;;;;;;;;;;;;13.91;79.25;99349.94;5071283;28;19933;-60
2021/12/30 07:25:55;;;;;;;;;;;;;;;13.94;79.42;99342.59;5071002;28;19966;-61
2021/12/30 07:28:21;;;;;;;;;;;;;;;13.97;79.38;99353.94;5071262;28;19924;-62
2021/12/30 07:30:48;;;;;;;;;;;;;;;14.00;79.42;99361.59;5071199;28;20261;-60
2021/12/30 07:33:14;;;;;;;;;;;;;;;14.02;79.40;99347.28;5070889;28;19928;-61
2021/12/30 07:35:41;;;;;;;;;;;;;;;14.05;79.47;99355.00;5071106;28;19925;-60
2021/12/30 07:38:07;;;;;;;;;;;;;;;14.07;79.30;99361.03;5070817;28;19924;-61
2021/12/30 07:40:34;;;;;;;;;;;;;;;14.11;79.34;99372.22;5070983;28;19928;-59
2021/12/30 07:43:00;;;;;;;;;;;;;;;14.11;79.25;99361.63;5070958;28;19925;-62
2021/12/30 07:45:27;;;;;;;;;;;;;;;14.14;79.35;99373.78;5070856;28;20388;-62
2021/12/30 07:47:54;;;;;;;;;;;;;;;14.15;79.45;99373.66;5070262;28;19987;-62
2021/12/30 07:50:21;;;;;;;;;;;;;;;14.18;79.44;99369.91;5070568;28;19924;-62
2021/12/30 07:52:48;;;;;;;;;;;;;;;14.20;79.46;99382.06;5071034;28;20591;-62
2021/12/30 07:55:15;;;;;;;;;;;;;;;14.23;79.46;99391.56;5070858;28;19924;-61
2021/12/30 07:57:42;;;;;;;;;;;;;;;14.25;79.54;99388.81;5069659;28;19929;-62
2021/12/30 08:00:11;;;;;;;;;;;;;;;14.28;79.36;99396.53;5070535;28;19963;-64
2021/12/30 08:02:37;;;;;;;;;;;;;;;14.30;79.42;99399.88;5070427;28;19978;-62
2021/12/30 08:05:04;;;;;;;;;;;;;;;14.33;79.34;99394.34;5070867;28;19944;-62
2021/12/30 08:07:30;;;;;;;;;;;;;;;14.34;79.30;99388.09;5070815;28;19928;-62
2021/12/30 08:09:57;;;;;;;;;;;;;;;14.34;79.33;99390.72;5070437;28;19929;-62
2021/12/30 08:12:23;;;;;;;;;;;;;;;14.37;79.43;99389.66;5070713;28;20335;-70
2021/12/30 08:14:50;;;;;;;;;;;;;;;14.39;79.34;99401.78;5070211;28;20301;-62
2021/12/30 08:17:16;;;;;;;;;;;;;;;14.40;79.37;99403.50;5070438;28;19924;-62
2021/12/30 08:19:43;;;;;;;;;;;;;;;14.42;79.27;99406.84;5070323;28;19973;-61
2021/12/30 08:22:10;;;;;;;;;;;;;;;14.43;79.40;99407.72;5070590;28;19936;-62
2021/12/30 08:24:41;;;;;;;;;;;;;;;14.43;79.11;99407.72;5101500;28;20464;-63
2021/12/30 08:27:12;;;;;;;;;;;;;;;14.45;79.29;99398.69;5070411;28;19977;-62
2021/12/30 08:29:39;;;;;;;;;;;;;;;14.44;79.10;99388.22;5070058;28;20486;-62
2021/12/30 08:32:08;;;;;;;;;;;;;;;14.45;79.31;99396.03;5070491;28;19982;-64
2021/12/30 08:34:34;;;;;;;;;;;;;;;14.48;79.41;99394.94;5069889;28;20007;-62
2021/12/30 08:37:01;;;;;;;;;;;;;;;14.50;79.60;99387.72;5070691;28;19924;-62
2021/12/30 08:39:27;;;;;;;;;;;;;;;14.52;79.47;99387.59;5070303;28;19932;-63
2021/12/30 08:41:58;;;;;;;;;;;;;;;14.55;79.49;99397.94;5070363;28;19970;-64
2021/12/30 08:44:26;;;;;;;;;;;;;;;14.56;79.50;99392.53;5070368;28;19932;-63
2021/12/30 08:46:53;;;;;;;;;;;;;;;14.58;79.36;99395.06;5070465;28;19986;-62
2021/12/30 08:49:19;;;;;;;;;;;;;;;14.57;79.23;99399.50;5070016;28;20503;-62
2021/12/30 08:51:46;;;;;;;;;;;;;;;14.60;79.29;99403.72;5070285;28;19929;-62
2021/12/30 08:54:13;;;;;;;;;;;;;;;14.61;79.34;99405.38;5070119;28;20422;-62
2021/12/30 08:56:39;;;;;;;;;;;;;;;14.63;79.24;99399.97;5070172;28;19924;-62
2021/12/30 08:59:06;;;;;;;;;;;;;;;14.62;79.29;99401.81;5070216;28;19932;-66
2021/12/30 09:01:32;;;;;;;;;;;;;;;14.62;79.11;99401.81;5069967;28;20335;-62
2021/12/30 09:03:59;;;;;;;;;;;;;;;14.61;79.03;99421.28;5070174;28;20441;-61
2021/12/30 09:06:26;;;;;;;;;;;;;;;14.61;79.15;99407.22;5069935;28;20388;-62
2021/12/30 09:08:52;;;;;;;;;;;;;;;14.63;79.21;99419.38;5068701;28;19929;-63
2021/12/30 09:11:21;;;;;;;;;;;;;;;14.63;79.14;99416.72;5069703;28;19924;-62
2021/12/30 09:13:47;;;;;;;;;;;;;;;14.63;79.21;99416.72;5070369;28;19929;-63
2021/12/30 09:16:14;;;;;;;;;;;;;;;14.65;79.30;99421.91;5070533;28;20292;-64
2021/12/30 09:18:40;;;;;;;;;;;;;;;14.68;79.39;99411.03;5069893;28;19932;-62
2021/12/30 09:21:07;;;;;;;;;;;;;;;14.69;79.28;99420.69;5069659;28;19924;-63
2021/12/30 09:23:33;;;;;;;;;;;;;;;14.69;79.20;99413.56;5070279;28;19928;-62
2021/12/30 09:26:00;;;;;;;;;;;;;;;14.71;79.33;99418.75;5069754;28;19925;-62
2021/12/30 09:28:26;;;;;;;;;;;;;;;14.73;79.28;99422.13;5072272;28;20434;-62
2021/12/30 09:30:53;;;;;;;;;;;;;;;14.75;79.18;99427.28;5073262;28;19929;-64
2021/12/30 09:33:19;;;;;;;;;;;;;;;14.75;79.19;99435.22;5073557;28;19951;-63
2021/12/30 09:35:49;;;;;;;;;;;;;;;14.78;79.23;99435.88;5072099;28;19991;-62
2021/12/30 09:38:17;;;;;;;;;;;;;;;14.81;79.38;99440.09;5073166;28;20603;-62
2021/12/30 09:40:43;;;;;;;;;;;;;;;14.81;79.16;99440.09;5072819;28;19956;-63
2021/12/30 09:43:11;;;;;;;;;;;;;;;14.83;79.19;99441.66;5073382;28;20343;-62
2021/12/30 09:45:40;;;;;;;;;;;;;;;14.85;79.14;99433.59;5073458;28;19974;-62
2021/12/30 09:48:08;;;;;;;;;;;;;;;14.87;79.22;99430.81;5073173;28;19970;-62
2021/12/30 09:50:37;;;;;;;;;;;;;;;14.87;79.16;99452.84;5071709;28;19928;-63
2021/12/30 09:53:04;;;;;;;;;;;;;;;14.89;79.22;99435.03;5072948;28;19993;-62
2021/12/30 09:55:31;;;;;;;;;;;;;;;14.90;79.04;99431.41;5073110;28;20041;-62
2021/12/30 09:57:58;;;;;;;;;;;;;;;14.88;78.77;99437.78;5072792;28;20381;-63
2021/12/30 10:00:25;;;;;;;;;;;;;;;14.89;79.06;99437.66;5071543;28;19929;-63
2021/12/30 10:02:52;;;;;;;;;;;;;;;14.91;79.08;99440.19;5072647;28;20342;-65
2021/12/30 10:05:20;;;;;;;;;;;;;;;14.92;79.04;99444.53;5072540;28;19935;-62
2021/12/30 10:07:47;;;;;;;;;;;;;;;14.95;79.24;99444.28;5073534;28;19958;-62
2021/12/30 10:10:33;;;;;;;;;;;;;;;14.95;79.21;99439.81;5071594;28;19924;-62
2021/12/30 10:13:01;;;;;;;;;;;;;;;14.95;79.09;99433.69;5072720;28;19925;-63
2021/12/30 10:15:39;;;;;;;;;;;;;;;14.97;79.20;99443.19;5072693;28;20332;-64
2021/12/30 10:18:05;;;;;;;;;;;;;;;14.98;78.92;99454.63;5072430;28;19982;-62
2021/12/30 10:20:32;;;;;;;;;;;;;;;15.01;79.11;99450.88;5072378;28;19929;-63
2021/12/30 10:23:13;;;;;;;;;;;;;;;15.06;79.21;99432.81;5072590;28;19962;-62
2021/12/30 10:25:41;;;;;;;;;;;;;;;15.09;79.20;99445.81;5071291;28;19924;-62
2021/12/30 10:28:18;;;;;;;;;;;;;;;15.13;79.06;99454.38;5072243;28;19924;-63
2021/12/30 10:30:44;;;;;;;;;;;;;;;15.15;78.83;99449.78;5071948;28;19924;-62
2021/12/30 10:33:16;;;;;;;;;;;;;;;15.13;78.12;99447.22;5071049;28;19924;-63
2021/12/30 10:35:43;;;;;;;;;;;;;;;15.17;78.11;99458.47;5072012;28;20001;-64
2021/12/30 10:38:11;;;;;;;;;;;;;;;15.21;78.45;99450.09;5071829;28;19928;-62
2021/12/30 10:40:42;;;;;;;;;;;;;;;15.24;78.27;99451.66;5070644;28;19924;-62
2021/12/30 10:43:14;;;;;;;;;;;;;;;15.25;77.61;99450.69;5070569;28;19982;-62
2021/12/30 10:45:40;;;;;;;;;;;;;;;15.26;77.22;99449.75;5071934;28;19970;-62
2021/12/30 10:48:08;;;;;;;;;;;;;;;15.27;76.84;99450.56;5071767;28;19967;-63
2021/12/30 10:50:36;;;;;;;;;;;;;;;15.29;76.99;99454.78;5071530;28;20319;-62
2021/12/30 10:53:02;;;;;;;;;;;;;;;15.33;77.58;99468.66;5071790;28;20424;-62
2021/12/30 10:55:32;;;;;;;;;;;;;;;15.33;76.73;99466.00;5071729;28;19936;-63
2021/12/30 10:57:59;;;;;;;;;;;;;;;15.36;76.82;99468.38;5072109;28;19935;-62
2021/12/30 11:00:28;;;;;;;;;;;;;;;15.37;77.13;99472.72;5071531;28;20396;-61
2021/12/30 11:02:55;;;;;;;;;;;;;;;15.38;76.44;99466.44;5070521;28;19925;-61
2021/12/30 11:05:21;;;;;;;;;;;;;;;15.40;76.61;99467.16;5071648;28;19931;-61
2021/12/30 11:07:52;;;;;;;;;;;;;;;15.43;76.91;99479.31;5070136;28;19954;-61
2021/12/30 11:10:30;;;;;;;;;;;;;;;15.44;76.79;99481.03;5071203;28;19925;-62
2021/12/30 11:13:08;;;;;;;;;;;;;;;15.45;76.88;99477.41;5071547;28;19929;-62
2021/12/30 11:15:34;;;;;;;;;;;;;;;15.48;76.94;99487.75;5071428;28;19970;-62
2021/12/30 11:18:08;;;;;;;;;;;;;;;15.49;76.73;99479.69;5071572;28;19931;-62
2021/12/30 11:20:39;;;;;;;;;;;;;;;15.48;76.32;99466.53;5070932;28;20319;-62
2021/12/30 11:23:05;;;;;;;;;;;;;;;15.48;76.17;99477.97;5071519;28;20384;-63
2021/12/30 11:25:32;;;;;;;;;;;;;;;15.49;76.23;99469.06;5070009;28;19928;-62
2021/12/30 11:27:58;;;;;;;;;;;;;;;15.48;75.36;99483.28;5071121;28;19924;-61
2021/12/30 11:30:25;;;;;;;;;;;;;;;15.51;76.29;99482.19;5071021;28;19929;-62
2021/12/30 11:32:51;;;;;;;;;;;;;;;15.54;76.38;99483.75;5069922;28;19928;-64
2021/12/30 11:35:20;;;;;;;;;;;;;;;15.52;75.72;99477.72;5071093;28;19982;-62
2021/12/30 11:37:47;;;;;;;;;;;;;;;15.54;76.25;99481.94;5071087;28;20362;-62
2021/12/30 11:40:17;;;;;;;;;;;;;;;15.57;76.34;99467.56;5070966;28;19924;-62
2021/12/30 11:42:45;;;;;;;;;;;;;;;15.58;75.98;99469.25;5069824;28;19924;-62
2021/12/30 11:45:27;;;;;;;;;;;;;;;15.61;75.96;99461.06;5071173;28;20720;-62
2021/12/30 11:47:54;;;;;;;;;;;;;;;15.61;75.93;99469.00;5069564;28;20477;-61
2021/12/30 11:50:27;;;;;;;;;;;;;;;15.63;75.85;99475.03;5069732;28;20253;-63
2021/12/30 11:53:11;;;;;;;;;;;;;;;15.63;75.94;99473.22;5071052;28;19931;-61
2021/12/30 11:55:41;;;;;;;;;;;;;;;15.63;75.22;99478.53;5069694;28;19966;-61
2021/12/30 11:58:44;;;;;;;;;;;;;;;15.66;75.68;99487.22;5070896;28;19925;-61
2021/12/30 12:01:11;;;;;;;;;;;;;;;15.66;75.49;99485.38;5087926;28;19931;-62
2021/12/30 12:03:44;;;;;;;;;;;;;;;15.66;75.11;99484.56;5074041;28;20015;-63
2021/12/30 12:06:33;;;;;;;;;;;;;;;15.67;75.60;99479.13;5071128;28;20011;-62
2021/12/30 12:09:04;;;;;;;;;;;;;;;15.68;75.49;99488.75;5070933;28;19935;-62
2021/12/30 12:11:32;;;;;;;;;;;;;;;15.70;75.28;99480.69;5069564;28;19924;-62
2021/12/30 12:14:11;;;;;;;;;;;;;;;15.71;75.44;99488.53;5070574;28;19929;-61
2021/12/30 12:16:43;;;;;;;;;;;;;;;15.71;74.78;99487.66;5071077;28;19972;-61
2021/12/30 12:19:10;;;;;;;;;;;;;;;15.69;74.45;99479.84;5070567;28;19924;-65
2021/12/30 12:21:41;;;;;;;;;;;;;;;15.72;74.88;99478.72;5070458;28;19966;-60
2021/12/30 12:24:23;;;;;;;;;;;;;;;15.72;74.60;99479.59;5069250;28;20423;-62
2021/12/30 12:26:50;;;;;;;;;;;;;;;15.72;74.55;99476.06;5070404;28;19932;-61
2021/12/30 12:29:25;;;;;;;;;;;;;;;15.74;74.48;99471.50;5070244;28;19925;-61
2021/12/30 12:31:56;;;;;;;;;;;;;;;15.73;74.02;99483.06;5070718;28;19931;-61
2021/12/30 12:34:44;;;;;;;;;;;;;;;15.74;74.26;99480.28;5069439;28;19931;-64
2021/12/30 12:37:26;;;;;;;;;;;;;;;15.75;73.43;99489.91;5069283;28;20553;-61
2021/12/30 12:39:57;;;;;;;;;;;;;;;15.75;73.86;99476.66;5068924;28;20261;-61
2021/12/30 12:42:42;;;;;;;;;;;;;;;15.77;73.80;99481.84;5070461;28;20343;-62
2021/12/30 12:45:14;;;;;;;;;;;;;;;15.77;73.37;99481.84;5070343;28;19924;-62
2021/12/30 12:47:40;;;;;;;;;;;;;;;15.80;74.78;99491.34;5069896;28;19931;-61
2021/12/30 12:50:07;;;;;;;;;;;;;;;15.80;74.00;99480.72;5070096;28;19925;-61
2021/12/30 12:52:44;;;;;;;;;;;;;;;15.79;73.94;99484.38;5070423;28;20460;-62